Time;durP1;ratioP1;P1;durP2;ratioP2;P2;SDS_P1;SDS_P2;PMS_P1;PMS_P2;Temp;Humidity;BMP_temperature;BMP_pressure;BME280_temperature;BME280_humidity;BME280_pressure;Samples;Min_cycle;Max_cycle;Signal;HPM_P1;HPM_P2
2021/12/05 00:22:29;;;;;;;1.23;0.82;;;;;;;;;;4993442;28;20042;-58
2021/12/05 00:24:58;;;;;;;6.10;2.25;;;;;;;;;;5008177;28;20050;-58
2021/12/05 00:27:29;;;;;;;3.55;1.63;;;;;;;;;;5008481;28;20061;-59
2021/12/05 00:30:07;;;;;;;5.97;1.92;;;;;;;;;;5008234;28;20065;-60
2021/12/05 00:32:58;;;;;;;5.50;2.22;;;;;;;;;;5008478;28;20044;-57
2021/12/05 00:44:14;;;;;;;4.40;2.00;;;;;;;;;;5008775;28;20080;-58
2021/12/05 00:59:31;;;;;;;5.05;1.83;;;;;;;;;;5008933;28;20077;-60
2021/12/05 01:12:43;;;;;;;3.92;1.63;;;;;;;;;;5008473;28;20049;-59
2021/12/05 01:15:12;;;;;;;11.35;3.75;;;;;;;;;;5008757;28;20129;-58
2021/12/05 01:17:53;;;;;;;4.53;2.17;;;;;;;;;;5007210;28;20049;-57
2021/12/05 01:20:20;;;;;;;5.55;2.50;;;;;;;;;;5008265;28;20048;-59
2021/12/05 01:22:54;;;;;;;5.15;1.40;;;;;;;;;;5007909;28;20452;-59
2021/12/05 01:28:05;;;;;;;4.40;2.08;;;;;;;;;;5007685;28;22432;-58
2021/12/05 01:33:15;;;;;;;6.60;2.42;;;;;;;;;;5006551;28;20042;-59
2021/12/05 01:36:03;;;;;;;4.65;2.20;;;;;;;;;;5007523;28;20499;-57
2021/12/05 02:08:51;;;;;;;3.30;1.55;;;;;;;;;;5007813;28;20052;-59
2021/12/05 02:11:37;;;;;;;3.00;1.23;;;;;;;;;;5006391;28;20045;-58
2021/12/05 02:31:08;;;;;;;6.38;2.90;;;;;;;;;;4956912;28;20057;-59
2021/12/05 02:41:51;;;;;;;5.40;2.53;;;;;;;;;;4944037;28;20126;-58
2021/12/05 02:44:21;;;;;;;3.75;1.48;;;;;;;;;;4945669;28;20440;-57
2021/12/05 02:47:00;;;;;;;5.00;2.30;;;;;;;;;;4975484;28;20467;-57
2021/12/05 02:49:26;;;;;;;4.28;2.13;;;;;;;;;;5006086;28;20133;-55
2021/12/05 02:51:54;;;;;;;6.93;2.95;;;;;;;;;;5007186;28;20056;-60
2021/12/05 02:54:22;;;;;;;4.72;2.63;;;;;;;;;;5004923;28;20046;-57
2021/12/05 02:56:50;;;;;;;5.72;2.05;;;;;;;;;;5006095;28;20042;-57
2021/12/05 02:59:24;;;;;;;8.07;3.53;;;;;;;;;;5006505;28;20483;-57
2021/12/05 03:01:54;;;;;;;4.47;2.38;;;;;;;;;;5006152;28;20041;-56
2021/12/05 03:04:23;;;;;;;7.63;2.78;;;;;;;;;;5006837;28;22102;-60
2021/12/05 03:06:52;;;;;;;12.15;4.10;;;;;;;;;;5005506;28;20065;-57
2021/12/05 03:09:18;;;;;;;11.25;3.97;;;;;;;;;;5006427;28;20061;-60
2021/12/05 03:11:44;;;;;;;6.75;3.88;;;;;;;;;;5006585;28;20041;-59
2021/12/05 03:14:11;;;;;;;9.38;4.25;;;;;;;;;;5009113;28;20120;-59
2021/12/05 03:16:37;;;;;;;10.48;4.35;;;;;;;;;;4991639;28;20056;-56
2021/12/05 03:19:04;;;;;;;8.30;2.28;;;;;;;;;;5011063;28;20041;-60
2021/12/05 03:21:30;;;;;;;7.95;3.63;;;;;;;;;;5008884;28;20053;-59
2021/12/05 03:23:56;;;;;;;5.82;2.97;;;;;;;;;;5010905;28;20383;-59
2021/12/05 03:26:23;;;;;;;5.95;2.25;;;;;;;;;;5010245;28;20072;-59
2021/12/05 03:28:51;;;;;;;2.75;1.60;;;;;;;;;;5009434;28;20052;-58
2021/12/05 03:31:17;;;;;;;4.25;1.95;;;;;;;;;;5010437;28;20923;-58
2021/12/05 03:33:43;;;;;;;3.58;1.70;;;;;;;;;;5008427;28;20408;-59
2021/12/05 03:36:09;;;;;;;4.00;1.85;;;;;;;;;;5009099;28;20058;-58
2021/12/05 03:38:36;;;;;;;5.40;2.20;;;;;;;;;;5011682;28;20037;-58
2021/12/05 03:41:02;;;;;;;5.78;2.35;;;;;;;;;;4976527;28;20037;-59
2021/12/05 03:43:27;;;;;;;3.03;1.45;;;;;;;;;;5009677;28;20053;-61
2021/12/05 03:45:54;;;;;;;3.72;1.27;;;;;;;;;;5011292;28;20041;-59
2021/12/05 03:48:22;;;;;;;4.82;2.00;;;;;;;;;;5010164;28;20563;-58
2021/12/05 03:50:49;;;;;;;3.88;1.90;;;;;;;;;;5008988;28;20041;-58
2021/12/05 03:53:16;;;;;;;5.95;1.60;;;;;;;;;;4992366;28;20881;-60
2021/12/05 03:55:46;;;;;;;2.58;1.17;;;;;;;;;;5008815;28;20049;-59
2021/12/05 03:58:12;;;;;;;5.05;2.38;;;;;;;;;;5010581;28;20045;-59
2021/12/05 04:00:40;;;;;;;4.05;2.03;;;;;;;;;;5009762;28;20403;-60
2021/12/05 04:03:07;;;;;;;4.20;1.63;;;;;;;;;;5010931;28;20084;-59
2021/12/05 04:05:34;;;;;;;2.58;1.17;;;;;;;;;;5008617;28;20044;-57
2021/12/05 04:08:01;;;;;;;3.17;1.85;;;;;;;;;;5008685;28;20049;-58
2021/12/05 04:10:28;;;;;;;6.55;2.78;;;;;;;;;;5010639;28;20038;-59
2021/12/05 04:12:54;;;;;;;4.85;1.90;;;;;;;;;;5008077;28;20045;-60
2021/12/05 04:15:20;;;;;;;4.38;1.60;;;;;;;;;;5009637;28;20041;-59
2021/12/05 04:17:46;;;;;;;2.80;1.50;;;;;;;;;;5010424;28;20104;-59
2021/12/05 04:20:13;;;;;;;3.97;2.05;;;;;;;;;;5013053;28;20602;-59
2021/12/05 04:22:40;;;;;;;3.90;1.10;;;;;;;;;;5010111;28;20045;-57
2021/12/05 04:25:09;;;;;;;2.72;1.42;;;;;;;;;;5011411;28;20057;-56
2021/12/05 04:27:36;;;;;;;4.10;1.40;;;;;;;;;;5009502;28;21812;-57
2021/12/05 04:30:03;;;;;;;3.58;1.52;;;;;;;;;;5009363;28;20186;-57
2021/12/05 04:32:29;;;;;;;4.30;2.00;;;;;;;;;;5009175;28;20087;-58
2021/12/05 04:34:55;;;;;;;5.80;2.13;;;;;;;;;;5010216;28;20431;-59
2021/12/05 04:37:20;;;;;;;3.47;1.58;;;;;;;;;;5008932;28;20038;-59
2021/12/05 04:39:46;;;;;;;2.22;1.40;;;;;;;;;;5009543;28;20410;-59
2021/12/05 04:42:14;;;;;;;3.90;1.00;;;;;;;;;;5008822;28;20076;-58
2021/12/05 04:44:40;;;;;;;3.35;1.30;;;;;;;;;;5008722;28;20037;-59
2021/12/05 04:47:05;;;;;;;2.65;1.20;;;;;;;;;;5008958;28;20034;-57
2021/12/05 04:49:31;;;;;;;5.35;1.38;;;;;;;;;;5009960;28;20132;-58
2021/12/05 04:51:57;;;;;;;4.28;1.55;;;;;;;;;;5009139;28;20041;-58
2021/12/05 04:54:23;;;;;;;2.78;1.38;;;;;;;;;;5008552;28;20075;-58
2021/12/05 04:56:50;;;;;;;3.05;1.30;;;;;;;;;;5008906;28;20092;-57
2021/12/05 04:59:18;;;;;;;2.47;1.05;;;;;;;;;;5009859;28;20034;-60
2021/12/05 05:01:46;;;;;;;1.67;0.73;;;;;;;;;;5007260;28;20044;-59
2021/12/05 05:04:27;;;;;;;1.98;0.95;;;;;;;;;;5009034;28;20452;-59
2021/12/05 05:07:03;;;;;;;2.45;0.98;;;;;;;;;;5007940;28;20502;-58
2021/12/05 05:09:29;;;;;;;1.83;0.85;;;;;;;;;;5007142;28;20399;-59
2021/12/05 05:11:55;;;;;;;2.47;1.10;;;;;;;;;;4990599;28;20038;-58
2021/12/05 05:14:21;;;;;;;2.55;1.27;;;;;;;;;;5007589;28;20092;-59
2021/12/05 05:16:53;;;;;;;6.95;1.15;;;;;;;;;;5008446;28;20037;-55
2021/12/05 05:19:21;;;;;;;3.75;1.40;;;;;;;;;;5006997;28;20128;-58
2021/12/05 05:22:00;;;;;;;2.00;0.75;;;;;;;;;;5009296;28;21888;-59
2021/12/05 05:41:13;;;;;;;3.70;1.05;;;;;;;;;;5007419;28;20074;-57
2021/12/05 05:46:15;;;;;;;1.65;0.80;;;;;;;;;;5008025;28;20131;-59
2021/12/05 05:48:50;;;;;;;1.48;0.80;;;;;;;;;;5007860;28;20041;-58
2021/12/05 05:51:16;;;;;;;2.53;1.02;;;;;;;;;;5007838;28;20038;-57
2021/12/05 05:53:42;;;;;;;1.17;0.70;;;;;;;;;;5006580;28;20371;-58
2021/12/05 05:56:16;;;;;;;4.05;1.08;;;;;;;;;;5008833;28;20481;-59
2021/12/05 05:59:07;;;;;;;1.33;0.73;;;;;;;;;;5006451;28;20041;-59
2021/12/05 06:04:07;;;;;;;4.32;1.23;;;;;;;;;;5008177;28;20034;-59
2021/12/05 06:06:33;;;;;;;2.97;1.17;;;;;;;;;;5009184;28;20083;-57
2021/12/05 06:08:59;;;;;;;3.45;1.45;;;;;;;;;;5010402;28;20034;-58
2021/12/05 06:11:25;;;;;;;2.67;1.20;;;;;;;;;;5008294;28;20120;-60
2021/12/05 06:13:51;;;;;;;2.35;1.10;;;;;;;;;;5009871;28;20133;-57
2021/12/05 06:16:18;;;;;;;1.55;0.85;;;;;;;;;;5007925;28;20050;-56
2021/12/05 06:18:44;;;;;;;1.83;0.95;;;;;;;;;;5007898;28;20745;-58
2021/12/05 06:21:11;;;;;;;4.25;1.90;;;;;;;;;;5008568;28;20095;-58
2021/12/05 06:23:38;;;;;;;1.27;0.77;;;;;;;;;;5007869;28;20030;-57
2021/12/05 06:26:05;;;;;;;3.30;1.13;;;;;;;;;;5008099;28;20029;-56
2021/12/05 06:29:20;;;;;;;4.82;1.52;;;;;;;;;;5007856;28;20137;-59
2021/12/05 06:42:19;;;;;;;3.08;1.00;;;;;;;;;;5007442;28;20056;-58
2021/12/05 06:47:29;;;;;;;1.92;0.90;;;;;;;;;;4991235;28;20104;-57
2021/12/05 06:49:55;;;;;;;3.17;1.08;;;;;;;;;;5008511;28;20037;-57
2021/12/05 06:52:22;;;;;;;2.97;1.13;;;;;;;;;;5006646;28;20449;-60
2021/12/05 06:54:48;;;;;;;2.60;1.15;;;;;;;;;;5006644;28;20050;-56
2021/12/05 06:57:14;;;;;;;2.53;0.93;;;;;;;;;;4996641;28;20053;-57
2021/12/05 06:59:41;;;;;;;4.05;0.93;;;;;;;;;;5007013;28;20049;-57
2021/12/05 07:02:08;;;;;;;2.97;1.27;;;;;;;;;;5006406;28;20066;-55
2021/12/05 07:07:01;;;;;;;2.80;1.45;;;;;;;;;;5006719;28;20037;-58
2021/12/05 07:09:28;;;;;;;2.53;1.20;;;;;;;;;;5005218;28;20128;-54
2021/12/05 07:22:53;;;;;;;2.30;0.90;;;;;;;;;;4985938;28;20034;-58
2021/12/05 07:25:43;;;;;;;3.03;1.00;;;;;;;;;;5004880;28;20041;-58
2021/12/05 07:41:55;;;;;;;1.00;0.40;;;;;;;;;;5004764;28;20582;-57
2021/12/05 07:44:21;;;;;;;0.93;0.43;;;;;;;;;;5006137;28;20128;-56
2021/12/05 07:46:47;;;;;;;2.05;1.13;;;;;;;;;;5006561;28;20121;-55
2021/12/05 07:49:15;;;;;;;2.65;0.98;;;;;;;;;;5008111;28;20037;-58
2021/12/05 07:51:45;;;;;;;2.45;0.85;;;;;;;;;;5007121;28;20056;-57
2021/12/05 07:57:15;;;;;;;0.32;0.25;;;;;;;;;;5005508;28;20045;-56
2021/12/05 08:00:35;;;;;;;2.33;0.80;;;;;;;;;;5007092;28;20493;-57
2021/12/05 08:16:12;;;;;;;2.35;0.88;;;;;;;;;;5011850;28;20486;-59
2021/12/05 08:18:38;;;;;;;3.53;1.30;;;;;;;;;;5011433;28;20846;-58
2021/12/05 08:21:05;;;;;;;2.65;1.02;;;;;;;;;;5012368;28;20042;-58
2021/12/05 08:23:31;;;;;;;1.45;0.80;;;;;;;;;;5013528;28;20037;-59
2021/12/05 08:26:07;;;;;;;2.30;1.10;;;;;;;;;;5013219;28;20060;-56
2021/12/05 08:31:33;;;;;;;1.88;0.90;;;;;;;;;;5006864;28;20041;-57
2021/12/05 10:10:42;;;;;;;11.20;1.42;;;;;;;;;;5007244;28;20056;-56
2021/12/05 10:18:55;;;;;;;2.83;1.25;;;;;;;;;;5007416;28;20068;-54
2021/12/05 10:37:26;;;;;;;5.47;1.60;;;;;;;;;;5005349;28;20034;-57
2021/12/05 10:40:09;;;;;;;4.22;1.48;;;;;;;;;;5007655;28;20048;-58
2021/12/05 10:42:44;;;;;;;2.08;0.75;;;;;;;;;;5007501;28;20041;-56
2021/12/05 10:45:25;;;;;;;3.03;0.95;;;;;;;;;;5005861;28;20046;-56
2021/12/05 10:47:53;;;;;;;3.67;1.48;;;;;;;;;;5006465;28;20049;-57
2021/12/05 10:50:29;;;;;;;4.85;1.88;;;;;;;;;;5004533;28;20070;-57
2021/12/05 10:53:13;;;;;;;2.83;1.23;;;;;;;;;;5005891;28;20037;-54
2021/12/05 10:55:38;;;;;;;2.83;1.10;;;;;;;;;;5005212;28;20120;-56
2021/12/05 10:58:05;;;;;;;4.47;1.60;;;;;;;;;;5007354;28;20041;-58
2021/12/05 11:00:31;;;;;;;3.35;1.55;;;;;;;;;;5006596;28;20042;-57
2021/12/05 11:03:32;;;;;;;2.25;0.95;;;;;;;;;;5007864;28;20068;-55
2021/12/05 11:05:58;;;;;;;4.13;1.77;;;;;;;;;;4974835;28;20097;-57
2021/12/05 11:08:31;;;;;;;4.22;1.77;;;;;;;;;;5000133;28;20038;-58
2021/12/05 11:11:13;;;;;;;5.47;1.88;;;;;;;;;;5006829;28;20054;-58
2021/12/05 11:13:40;;;;;;;2.10;1.05;;;;;;;;;;5006718;28;20038;-55
2021/12/05 11:16:24;;;;;;;3.92;1.63;;;;;;;;;;5007751;28;20037;-58
2021/12/05 11:18:50;;;;;;;3.95;1.67;;;;;;;;;;5005670;28;20128;-58
2021/12/05 11:21:34;;;;;;;4.45;1.60;;;;;;;;;;5006833;28;20044;-59
2021/12/05 11:24:07;;;;;;;5.65;2.40;;;;;;;;;;5005030;28;20080;-57
2021/12/05 11:26:33;;;;;;;7.97;2.47;;;;;;;;;;5004858;28;20046;-58
2021/12/05 11:28:59;;;;;;;4.28;2.20;;;;;;;;;;4984106;28;20061;-57
2021/12/05 11:31:25;;;;;;;7.13;2.58;;;;;;;;;;4985939;28;20042;-59
2021/12/05 11:33:54;;;;;;;3.80;2.05;;;;;;;;;;4987773;28;20142;-57
2021/12/05 11:36:24;;;;;;;3.63;1.75;;;;;;;;;;4988923;28;20046;-58
2021/12/05 11:38:51;;;;;;;4.60;2.10;;;;;;;;;;4990609;28;20049;-54
2021/12/05 11:41:20;;;;;;;5.05;1.75;;;;;;;;;;4990351;28;20034;-57
2021/12/05 11:43:51;;;;;;;5.40;1.80;;;;;;;;;;4989802;28;20407;-57
2021/12/05 11:46:28;;;;;;;6.05;2.00;;;;;;;;;;4990263;28;20038;-58
2021/12/05 11:49:05;;;;;;;3.33;1.95;;;;;;;;;;4989800;28;20735;-58
2021/12/05 11:51:31;;;;;;;6.68;1.60;;;;;;;;;;4989051;28;20046;-58
2021/12/05 11:54:08;;;;;;;2.42;1.17;;;;;;;;;;4989145;28;20078;-58
2021/12/05 11:56:34;;;;;;;8.00;3.00;;;;;;;;;;4989535;28;20042;-58
2021/12/05 11:59:17;;;;;;;4.07;2.05;;;;;;;;;;4989530;28;20049;-57
2021/12/05 12:01:46;;;;;;;4.50;2.60;;;;;;;;;;4990396;28;20041;-57
2021/12/05 12:04:13;;;;;;;8.00;2.70;;;;;;;;;;4989248;28;20034;-58
2021/12/05 12:06:40;;;;;;;5.85;2.65;;;;;;;;;;4989556;28;20046;-58
2021/12/05 12:09:06;;;;;;;2.20;1.27;;;;;;;;;;4988107;28;20564;-58
2021/12/05 12:11:34;;;;;;;4.93;2.88;;;;;;;;;;4989958;28;20620;-58
2021/12/05 12:13:59;;;;;;;5.80;1.95;;;;;;;;;;4987284;28;20047;-57
2021/12/05 12:16:26;;;;;;;3.85;1.90;;;;;;;;;;4988928;28;20053;-57
2021/12/05 12:18:53;;;;;;;3.38;1.73;;;;;;;;;;4989560;28;20046;-57
2021/12/05 12:21:25;;;;;;;4.18;1.35;;;;;;;;;;4987074;28;20046;-59
2021/12/05 12:23:52;;;;;;;2.50;1.20;;;;;;;;;;4991317;28;20047;-59
2021/12/05 12:26:18;;;;;;;2.85;1.17;;;;;;;;;;4989084;28;20442;-57
2021/12/05 12:28:45;;;;;;;2.20;1.23;;;;;;;;;;5001758;28;22467;-59
2021/12/05 12:31:21;;;;;;;1.08;0.55;;;;;;;;;;5008313;28;20037;-58
2021/12/05 12:33:52;;;;;;;3.45;1.50;;;;;;;;;;5008611;28;20049;-58
2021/12/05 12:36:37;;;;;;;2.75;1.20;;;;;;;;;;5009253;28;20101;-59
2021/12/05 12:39:05;;;;;;;2.80;1.33;;;;;;;;;;5010450;28;20091;-58
2021/12/05 12:41:31;;;;;;;3.30;1.50;;;;;;;;;;5008848;28;20050;-60
2021/12/05 12:43:59;;;;;;;3.83;1.42;;;;;;;;;;5008497;28;20160;-60
2021/12/05 12:46:45;;;;;;;3.08;1.30;;;;;;;;;;5007423;28;20073;-59
2021/12/05 12:49:14;;;;;;;5.57;2.08;;;;;;;;;;5008793;28;20061;-58
2021/12/05 12:51:43;;;;;;;3.28;1.42;;;;;;;;;;5007088;28;20045;-59
2021/12/05 12:54:11;;;;;;;6.13;2.17;;;;;;;;;;5008006;28;20528;-59
2021/12/05 12:56:39;;;;;;;3.03;1.20;;;;;;;;;;5007617;28;20053;-56
2021/12/05 12:59:07;;;;;;;3.47;1.33;;;;;;;;;;5008981;28;20046;-58
2021/12/05 13:02:15;;;;;;;1.55;0.82;;;;;;;;;;5008180;28;20395;-58
2021/12/05 13:05:05;;;;;;;1.60;1.02;;;;;;;;;;5005923;28;20049;-59
2021/12/05 13:10:31;;;;;;;5.68;1.38;;;;;;;;;;5008138;28;20068;-59
2021/12/05 13:13:06;;;;;;;4.95;2.05;;;;;;;;;;5008438;28;20049;-59
2021/12/05 13:15:39;;;;;;;3.75;1.70;;;;;;;;;;5006647;28;20041;-59
2021/12/05 13:18:08;;;;;;;5.75;1.55;;;;;;;;;;5007716;28;20114;-59
2021/12/05 13:20:43;;;;;;;3.30;1.75;;;;;;;;;;5007516;28;20085;-58
2021/12/05 13:23:14;;;;;;;7.28;2.10;;;;;;;;;;5007080;28;20065;-58
2021/12/05 13:25:58;;;;;;;3.25;1.05;;;;;;;;;;5006738;28;20038;-59
2021/12/05 13:28:32;;;;;;;3.40;1.45;;;;;;;;;;5007394;28;20067;-58
2021/12/05 13:30:59;;;;;;;3.30;1.48;;;;;;;;;;5007432;28;20050;-59
2021/12/05 13:33:28;;;;;;;3.92;1.77;;;;;;;;;;5005943;28;20064;-58
2021/12/05 13:35:58;;;;;;;2.90;1.15;;;;;;;;;;5006324;28;20042;-58
2021/12/05 13:38:30;;;;;;;24.15;1.13;;;;;;;;;;5006146;28;21812;-58
2021/12/05 13:41:05;;;;;;;2.30;1.27;;;;;;;;;;5008176;28;20080;-56
2021/12/05 13:43:31;;;;;;;3.75;1.75;;;;;;;;;;5006199;28;22452;-59
2021/12/05 13:45:59;;;;;;;2.28;0.75;;;;;;;;;;5007319;28;20477;-59
2021/12/05 13:48:26;;;;;;;6.53;1.80;;;;;;;;;;5008135;28;20057;-58
2021/12/05 13:50:57;;;;;;;2.10;1.50;;;;;;;;;;5006915;28;20058;-59
2021/12/05 13:53:35;;;;;;;2.40;1.27;;;;;;;;;;5007071;28;20042;-59
2021/12/05 13:56:09;;;;;;;3.08;1.48;;;;;;;;;;5006032;28;20093;-58
2021/12/05 13:58:40;;;;;;;5.60;1.55;;;;;;;;;;5004637;28;20049;-59
2021/12/05 14:01:07;;;;;;;2.33;1.20;;;;;;;;;;5007088;28;20038;-59
2021/12/05 14:03:40;;;;;;;1.40;0.60;;;;;;;;;;5007090;28;20041;-58
2021/12/05 14:06:26;;;;;;;1.83;1.30;;;;;;;;;;5005219;28;20038;-59
2021/12/05 14:08:52;;;;;;;3.28;1.20;;;;;;;;;;4992395;28;20100;-58
2021/12/05 14:11:19;;;;;;;1.60;0.95;;;;;;;;;;5006809;28;20030;-60
2021/12/05 14:13:45;;;;;;;2.05;1.15;;;;;;;;;;5006065;28;20077;-58
2021/12/05 14:16:11;;;;;;;1.55;0.93;;;;;;;;;;5007161;28;20053;-58
2021/12/05 14:18:36;;;;;;;1.58;0.90;;;;;;;;;;5005339;28;20107;-56
2021/12/05 14:21:16;;;;;;;4.03;1.58;;;;;;;;;;5006903;28;20099;-59
2021/12/05 14:23:52;;;;;;;1.90;0.90;;;;;;;;;;5005455;28;20511;-59
2021/12/05 14:26:20;;;;;;;4.03;1.85;;;;;;;;;;5006845;28;20064;-58
2021/12/05 14:29:04;;;;;;;2.55;1.13;;;;;;;;;;5007574;28;20103;-59
2021/12/05 14:31:50;;;;;;;1.63;0.63;;;;;;;;;;5005773;28;20042;-58
2021/12/05 14:34:17;;;;;;;3.25;1.38;;;;;;;;;;5006065;28;20502;-57
2021/12/05 14:36:45;;;;;;;3.92;1.60;;;;;;;;;;5006768;28;20505;-58
2021/12/05 14:39:20;;;;;;;2.05;1.00;;;;;;;;;;5007510;28;20977;-57
2021/12/05 14:41:48;;;;;;;2.78;1.30;;;;;;;;;;5006307;28;20046;-57
2021/12/05 14:44:15;;;;;;;3.50;1.10;;;;;;;;;;4989248;28;20038;-54
2021/12/05 14:46:55;;;;;;;1.52;0.75;;;;;;;;;;5005533;28;20034;-58
2021/12/05 14:49:23;;;;;;;3.58;1.65;;;;;;;;;;5005394;28;20446;-56
2021/12/05 14:51:49;;;;;;;2.05;1.08;;;;;;;;;;5006025;28;20076;-58
2021/12/05 14:54:20;;;;;;;2.38;1.50;;;;;;;;;;5007924;28;20076;-59
2021/12/05 14:56:46;;;;;;;2.72;1.33;;;;;;;;;;5007386;28;20050;-57
2021/12/05 14:59:13;;;;;;;5.15;1.77;;;;;;;;;;5007379;28;20088;-55
2021/12/05 15:01:40;;;;;;;2.88;1.48;;;;;;;;;;5007124;28;20026;-59
2021/12/05 15:04:06;;;;;;;4.55;1.40;;;;;;;;;;5007136;28;20383;-55
2021/12/05 15:06:35;;;;;;;5.45;1.90;;;;;;;;;;5007603;28;20042;-54
2021/12/05 15:09:05;;;;;;;5.25;2.97;;;;;;;;;;5008637;28;20473;-57
2021/12/05 15:11:31;;;;;;;2.80;0.93;;;;;;;;;;5011056;28;20533;-56
2021/12/05 15:14:07;;;;;;;2.25;1.33;;;;;;;;;;5012343;28;20474;-57
2021/12/05 15:16:33;;;;;;;6.53;1.92;;;;;;;;;;5016714;28;20117;-58
2021/12/05 15:18:59;;;;;;;3.33;1.55;;;;;;;;;;5015993;28;20057;-58
2021/12/05 15:21:27;;;;;;;2.25;1.20;;;;;;;;;;5014302;28;20565;-57
2021/12/05 15:23:53;;;;;;;3.85;1.33;;;;;;;;;;5016476;28;20053;-58
2021/12/05 15:26:20;;;;;;;4.35;1.63;;;;;;;;;;5014157;28;20029;-58
2021/12/05 15:28:47;;;;;;;3.33;1.42;;;;;;;;;;5013931;28;20049;-55
2021/12/05 15:31:13;;;;;;;2.13;0.95;;;;;;;;;;5012415;28;20099;-58
2021/12/05 15:33:39;;;;;;;2.42;0.73;;;;;;;;;;5011101;28;20068;-58
2021/12/05 15:36:06;;;;;;;2.72;1.42;;;;;;;;;;5011598;28;20502;-57
2021/12/05 15:38:34;;;;;;;4.05;1.13;;;;;;;;;;5011038;28;20037;-58
2021/12/05 15:41:09;;;;;;;0.57;0.30;;;;;;;;;;5015097;28;20461;-58
2021/12/05 15:43:36;;;;;;;2.78;1.20;;;;;;;;;;5012912;28;20041;-57
2021/12/05 15:46:04;;;;;;;6.10;1.80;;;;;;;;;;5013407;28;20438;-59
2021/12/05 15:48:31;;;;;;;5.63;1.42;;;;;;;;;;5010997;28;20057;-58
2021/12/05 15:50:58;;;;;;;3.08;1.48;;;;;;;;;;5010450;28;20057;-56
2021/12/05 15:53:25;;;;;;;1.65;0.93;;;;;;;;;;4992333;28;20072;-56
2021/12/05 15:55:52;;;;;;;4.25;1.25;;;;;;;;;;5009673;28;20056;-57
2021/12/05 15:58:24;;;;;;;2.38;1.52;;;;;;;;;;5010954;28;20121;-57
2021/12/05 16:01:09;;;;;;;1.23;0.60;;;;;;;;;;5010991;28;20175;-57
2021/12/05 16:03:38;;;;;;;3.60;0.95;;;;;;;;;;5008537;28;20052;-59
2021/12/05 16:06:07;;;;;;;1.02;0.90;;;;;;;;;;5009396;28;20180;-56
2021/12/05 16:08:33;;;;;;;2.10;1.08;;;;;;;;;;5010875;28;20209;-58
2021/12/05 16:10:59;;;;;;;6.70;2.17;;;;;;;;;;5010727;28;20129;-59
2021/12/05 16:13:29;;;;;;;5.88;2.40;;;;;;;;;;5008084;28;20063;-54
2021/12/05 16:15:55;;;;;;;4.05;1.80;;;;;;;;;;5007574;28;20050;-53
2021/12/05 16:18:30;;;;;;;2.63;1.63;;;;;;;;;;5009603;28;20045;-57
2021/12/05 16:21:02;;;;;;;3.63;1.35;;;;;;;;;;5008203;28;20065;-56
2021/12/05 16:23:31;;;;;;;1.73;1.13;;;;;;;;;;5009524;28;20050;-59
2021/12/05 16:26:00;;;;;;;7.15;2.20;;;;;;;;;;5008277;28;20064;-56
2021/12/05 16:28:34;;;;;;;7.93;1.70;;;;;;;;;;5007973;28;20065;-56
2021/12/05 16:31:08;;;;;;;3.13;1.75;;;;;;;;;;5010324;28;20044;-58
2021/12/05 16:33:34;;;;;;;3.08;1.73;;;;;;;;;;5008722;28;20128;-57
2021/12/05 16:36:01;;;;;;;2.22;1.23;;;;;;;;;;4989191;28;20053;-59
2021/12/05 16:38:32;;;;;;;3.55;2.25;;;;;;;;;;5008975;28;20422;-56
2021/12/05 16:41:09;;;;;;;2.60;1.35;;;;;;;;;;5009253;28;20064;-55
2021/12/05 16:43:37;;;;;;;5.43;1.50;;;;;;;;;;5009970;28;20092;-58
2021/12/05 16:46:06;;;;;;;17.67;2.15;;;;;;;;;;5009612;28;20100;-57
2021/12/05 16:48:34;;;;;;;2.08;0.93;;;;;;;;;;5008652;28;20077;-58
2021/12/05 16:51:12;;;;;;;1.15;0.70;;;;;;;;;;5008463;28;20449;-58
2021/12/05 16:53:43;;;;;;;1.55;0.63;;;;;;;;;;5008347;28;20042;-58
2021/12/05 16:56:11;;;;;;;2.70;1.27;;;;;;;;;;5006947;28;20499;-58
2021/12/05 16:58:39;;;;;;;2.83;1.33;;;;;;;;;;5008711;28;20038;-59
2021/12/05 17:01:07;;;;;;;1.50;0.93;;;;;;;;;;5008657;28;20129;-58
2021/12/05 17:03:33;;;;;;;1.27;0.73;;;;;;;;;;5007338;28;20076;-59
2021/12/05 17:06:05;;;;;;;1.05;0.55;;;;;;;;;;5008472;28;20065;-57
2021/12/05 17:08:34;;;;;;;2.17;1.13;;;;;;;;;;5008953;28;20046;-58
2021/12/05 17:11:01;;;;;;;2.05;1.15;;;;;;;;;;5008429;28;20033;-57
2021/12/05 17:13:39;;;;;;;5.15;1.65;;;;;;;;;;4990495;28;20052;-57
2021/12/05 17:16:15;;;;;;;4.32;1.60;;;;;;;;;;5009234;28;20164;-56
2021/12/05 17:18:58;;;;;;;2.13;0.93;;;;;;;;;;5006716;28;20590;-57
2021/12/05 17:21:33;;;;;;;1.50;1.25;;;;;;;;;;5008762;28;20045;-55
2021/12/05 17:24:08;;;;;;;2.22;0.88;;;;;;;;;;5009187;28;20542;-58
2021/12/05 17:26:33;;;;;;;2.17;1.10;;;;;;;;;;5009070;28;20564;-58
2021/12/05 17:29:13;;;;;;;2.50;0.95;;;;;;;;;;5009965;28;20088;-58
2021/12/05 17:31:43;;;;;;;1.48;0.82;;;;;;;;;;5010165;28;20040;-56
2021/12/05 17:34:11;;;;;;;3.10;1.77;;;;;;;;;;5008999;28;20869;-54
2021/12/05 17:36:39;;;;;;;2.92;1.83;;;;;;;;;;4991054;28;20096;-56
2021/12/05 17:39:09;;;;;;;3.13;1.25;;;;;;;;;;5010668;28;20061;-58
2021/12/05 17:41:36;;;;;;;1.05;0.60;;;;;;;;;;5010271;28;20040;-55
2021/12/05 17:44:03;;;;;;;1.00;0.70;;;;;;;;;;5009667;28;20130;-56
2021/12/05 17:46:30;;;;;;;1.52;0.80;;;;;;;;;;5009724;28;20046;-58
2021/12/05 17:48:56;;;;;;;9.30;2.42;;;;;;;;;;5010850;28;20132;-57
2021/12/05 17:51:27;;;;;;;4.00;1.63;;;;;;;;;;5008842;28;20425;-56
2021/12/05 17:53:56;;;;;;;1.98;1.23;;;;;;;;;;5010533;28;20202;-59
2021/12/05 17:56:37;;;;;;;2.47;1.48;;;;;;;;;;5008825;28;20092;-60
2021/12/05 17:59:13;;;;;;;11.52;2.13;;;;;;;;;;5009158;28;20133;-58
2021/12/05 18:04:25;;;;;;;4.22;2.58;;;;;;;;;;5006885;28;20160;-60
2021/12/05 18:06:51;;;;;;;2.53;1.17;;;;;;;;;;5007661;28;20061;-56
2021/12/05 18:09:17;;;;;;;7.63;2.17;;;;;;;;;;5007812;28;21970;-59
2021/12/05 18:11:43;;;;;;;5.03;2.33;;;;;;;;;;5006990;28;20056;-59
2021/12/05 18:14:10;;;;;;;2.28;1.05;;;;;;;;;;5006608;28;20042;-59
2021/12/05 18:16:36;;;;;;;3.28;1.80;;;;;;;;;;5006221;28;20909;-57
2021/12/05 18:19:07;;;;;;;2.55;1.27;;;;;;;;;;5006676;28;20034;-59
2021/12/05 18:21:37;;;;;;;14.25;2.00;;;;;;;;;;5005365;28;20053;-57
2021/12/05 18:24:04;;;;;;;5.55;1.67;;;;;;;;;;5007282;28;20078;-58
2021/12/05 18:26:30;;;;;;;3.40;1.60;;;;;;;;;;5005826;28;20041;-58
2021/12/05 18:28:56;;;;;;;2.88;1.70;;;;;;;;;;5006021;28;20057;-58
2021/12/05 18:31:25;;;;;;;5.40;2.25;;;;;;;;;;4994472;28;20045;-59
2021/12/05 18:33:53;;;;;;;6.47;2.70;;;;;;;;;;5006127;28;21718;-59
2021/12/05 18:36:19;;;;;;;3.00;1.70;;;;;;;;;;5005668;28;20132;-58
2021/12/05 18:38:47;;;;;;;2.10;1.23;;;;;;;;;;5007704;28;20038;-59
2021/12/05 18:41:14;;;;;;;6.80;2.28;;;;;;;;;;5007790;28;20042;-56
2021/12/05 18:43:41;;;;;;;3.97;2.08;;;;;;;;;;5004900;28;20049;-59
2021/12/05 18:46:08;;;;;;;3.35;1.55;;;;;;;;;;5006283;28;20658;-60
2021/12/05 18:48:35;;;;;;;4.60;2.40;;;;;;;;;;5006763;28;20475;-56
2021/12/05 18:51:02;;;;;;;5.28;2.28;;;;;;;;;;5006313;28;20471;-58
2021/12/05 18:53:27;;;;;;;3.83;1.80;;;;;;;;;;5005577;28;20038;-59
2021/12/05 18:55:53;;;;;;;4.75;1.92;;;;;;;;;;5004698;28;20053;-59
2021/12/05 18:58:23;;;;;;;9.00;2.33;;;;;;;;;;5007101;28;20044;-59
2021/12/05 19:06:26;;;;;;;3.35;1.55;;;;;;;;;;5005895;28;20072;-58
2021/12/05 19:14:21;;;;;;;4.95;1.50;;;;;;;;;;5006906;28;20232;-57
2021/12/05 19:16:49;;;;;;;6.50;2.83;;;;;;;;;;5007154;28;20118;-60
2021/12/05 19:19:15;;;;;;;4.07;1.60;;;;;;;;;;5006839;28;20041;-58
2021/12/05 19:21:41;;;;;;;4.28;2.08;;;;;;;;;;5006850;28;20574;-58
2021/12/05 19:24:07;;;;;;;2.22;1.10;;;;;;;;;;5005646;28;20037;-60
2021/12/05 19:26:34;;;;;;;3.05;1.63;;;;;;;;;;5006126;28;20137;-57
2021/12/05 19:29:00;;;;;;;9.40;2.75;;;;;;;;;;5005766;28;20045;-58
2021/12/05 19:31:27;;;;;;;5.05;1.73;;;;;;;;;;5006480;28;20034;-57
2021/12/05 19:33:53;;;;;;;2.25;1.35;;;;;;;;;;4990980;28;20060;-58
2021/12/05 19:36:20;;;;;;;6.13;2.15;;;;;;;;;;5005304;28;20085;-58
2021/12/05 19:38:47;;;;;;;2.70;1.35;;;;;;;;;;5007608;28;20554;-57
2021/12/05 19:41:13;;;;;;;4.93;2.40;;;;;;;;;;5008232;28;20103;-58
2021/12/05 19:43:39;;;;;;;2.08;0.93;;;;;;;;;;5007559;28;20046;-57
2021/12/05 19:46:08;;;;;;;5.00;2.22;;;;;;;;;;4998418;28;20496;-58
2021/12/05 19:48:34;;;;;;;7.57;2.35;;;;;;;;;;5009808;28;20119;-57
2021/12/05 19:51:02;;;;;;;5.93;2.45;;;;;;;;;;5009061;28;20030;-57
2021/12/05 19:53:28;;;;;;;5.05;2.08;;;;;;;;;;5005405;28;20037;-56
2021/12/05 19:55:54;;;;;;;5.93;1.85;;;;;;;;;;5011315;28;20071;-56
2021/12/05 19:58:20;;;;;;;7.05;2.72;;;;;;;;;;5012580;28;20057;-56
2021/12/05 20:00:46;;;;;;;2.58;1.38;;;;;;;;;;5011488;28;20037;-58
2021/12/05 20:03:12;;;;;;;6.88;2.20;;;;;;;;;;5013420;28;20042;-58
2021/12/05 20:05:39;;;;;;;2.28;1.25;;;;;;;;;;4993275;28;20048;-55
2021/12/05 20:08:07;;;;;;;3.00;1.25;;;;;;;;;;5013950;28;20045;-59
2021/12/05 20:10:34;;;;;;;4.75;2.08;;;;;;;;;;5014081;28;20050;-59
2021/12/05 20:13:01;;;;;;;3.67;1.70;;;;;;;;;;5013777;28;20088;-59
2021/12/05 20:15:28;;;;;;;4.38;2.25;;;;;;;;;;5013305;28;20053;-56
2021/12/05 20:17:53;;;;;;;5.28;2.15;;;;;;;;;;5013466;28;20044;-55
2021/12/05 20:20:20;;;;;;;6.68;1.88;;;;;;;;;;5010648;28;20033;-57
2021/12/05 20:22:46;;;;;;;1.70;0.98;;;;;;;;;;5010775;28;20086;-58
2021/12/05 20:25:13;;;;;;;3.15;1.98;;;;;;;;;;5009195;28;20046;-57
2021/12/05 20:27:40;;;;;;;5.07;2.65;;;;;;;;;;5009172;28;20135;-59
2021/12/05 20:30:08;;;;;;;2.95;1.40;;;;;;;;;;5009550;28;20137;-58